Casper, WY (82601)

2:20 PM MDT on August 03, 2015 (GMT -0600)
Casper Mountain Foothills | | Change Station
CLOSE
Current Station
Personal Weather Station
Location: Casper, WY
Elevation: 5334 ft
Nearby Weather Stations

Elev 5334 ft 42.83 °N, 106.31 °W | Updated 27 seconds ago

Partly Cloudy
Partly Cloudy
86.1 °F
Feels Like 83 °F
N
0.0
Wind Variable Wind from SW
Gusts 1.0 mph

Today
High -- | Low -- °F
--% Chance of Precip.
Yesterday
High -- | Low -- °F
Precip. -- in
5:58 AM 8:23 PM
Waning Gibbous, 84% visible
Pressure 29.82 in
Visibility 10.0 miles
Clouds Clear
Heat Index 83 °F
Dew Point 45 °F
Humidity 24%
Rainfall 0.00 in
Snow Depth Not available.
UV 11 out of 12
Pollen 5.90 out of 12
Air Quality Not available.
Flu Activity Not available.
METAR KCPR 031953Z 01007KT 340V040 10SM CLR 29/09 A3005 RMK AO2 LTG DSNT W SLP096 T02940094

More Conditions Fewer Conditions

Pressure 29.82 in
Visibility 10.0 miles
Clouds Clear
Heat Index 83 °F
Dew Point 45 °F
Humidity 24%
Rainfall 0.00 in
Snow Depth Not available.
UV 11 out of 12
Pollen 5.90 out of 12
Air Quality Not available.
Flu Activity Not available.
METAR KCPR 031953Z 01007KT 340V040 10SM CLR 29/09 A3005 RMK AO2 LTG DSNT W SLP096 T02940094

More Conditions Fewer Conditions

10-Day Weather Forecast

×

Almanac

Astronomy

Aug. 03, 2015 Rise Set
Actual Time
Civil Twilight
Nautical Twilight
Astronomical Twilight
Moon
Length of Visible Light
Length of Day
Tomorrow will be .
, % of the Moon is Illuminated

Today's Extremes

State Highs State Lows

Community

WunderPhotos

Upload Photos

1,843,743 photos uploaded!

WunderBlogs® & News

Nearby

Air Quality

  Air Quality AQ Index Pollutant
Not available.

Snow Depth

Station Depth Elevation

Earthquake Activity

City Distance Mag. Time & Date
Minimum magnitude displayed is 2.5.

Coastal Water Temperatures

Place Temperature

Stations

Nearby Weather Stations

Station Location Temp. Windchill Dew Point Humidity Wind Precip. Elev Updated Type